SCX2528 KATL-KAFW
Flight info
| Callsign | SCX2528 |
|---|---|
| Flight time | N/A |
| Altitude | 30000 |
| Route | NASSA2 YAALL J14 LIT PONYY TRUUK3 |
| Aircraft | B738/M-SDE2E3FGHIRWXY/LB1 |
Departure
| Time | 2026-05-05 01:41 |
|---|---|
| Airport | Hartsfield Jackson Atlanta International Airport (KATL) |
Arrival
| Time | N/A |
|---|---|
| Airport | Perot Field/Fort Worth Alliance Airport (KAFW) |
| Time | Latitude | Longitude | Altitude | Speed | Heading |
|---|---|---|---|---|---|
| 2026-05-05 01:13 | 33.65506 | -84.41826 | 981 ft | 0 kts | 327° |
| 2026-05-05 01:29 | 33.65505 | -84.41825 | 990 ft | 1 kts | 327° |
| 2026-05-05 01:30 | 33.65492 | -84.41815 | 993 ft | 3 kts | 327° |
| 2026-05-05 01:30 | 33.65475 | -84.41802 | 992 ft | 3 kts | 327° |
| 2026-05-05 01:30 | 33.65457 | -84.41789 | 996 ft | 3 kts | 327° |
| 2026-05-05 01:30 | 33.65441 | -84.41776 | 995 ft | 2 kts | 327° |
| 2026-05-05 01:31 | 33.65425 | -84.41767 | 992 ft | 3 kts | 3° |
| 2026-05-05 01:31 | 33.65408 | -84.41774 | 995 ft | 3 kts | 34° |
| 2026-05-05 01:31 | 33.65394 | -84.41786 | 993 ft | 1 kts | 35° |
| 2026-05-05 01:31 | 33.65392 | -84.41788 | 992 ft | 1 kts | 35° |
| 2026-05-05 01:34 | 33.65393 | -84.41787 | 992 ft | 1 kts | 35° |
| 2026-05-05 01:34 | 33.65420 | -84.41756 | 992 ft | 11 kts | 57° |
| 2026-05-05 01:34 | 33.65394 | -84.41641 | 993 ft | 18 kts | 122° |
| 2026-05-05 01:35 | 33.65329 | -84.41516 | 990 ft | 17 kts | 122° |
| 2026-05-05 01:35 | 33.65232 | -84.41455 | 990 ft | 17 kts | 180° |
| 2026-05-05 01:35 | 33.65131 | -84.41430 | 1003 ft | 15 kts | 128° |
| 2026-05-05 01:35 | 33.65119 | -84.41308 | 1005 ft | 15 kts | 91° |
| 2026-05-05 01:36 | 33.65120 | -84.41186 | 1004 ft | 14 kts | 89° |
| 2026-05-05 01:36 | 33.65119 | -84.41071 | 1006 ft | 14 kts | 90° |
| 2026-05-05 01:36 | 33.65089 | -84.40975 | 1010 ft | 13 kts | 154° |
| 2026-05-05 01:36 | 33.65049 | -84.40963 | 1010 ft | 0 kts | 177° |
| 2026-05-05 01:37 | 33.65036 | -84.40963 | 1010 ft | 6 kts | 181° |
| 2026-05-05 01:37 | 33.64967 | -84.40965 | 1009 ft | 12 kts | 180° |
| 2026-05-05 01:37 | 33.64884 | -84.40960 | 1008 ft | 12 kts | 167° |
| 2026-05-05 01:37 | 33.64846 | -84.40882 | 1009 ft | 12 kts | 91° |
| 2026-05-05 01:38 | 33.64845 | -84.40814 | 1011 ft | 14 kts | 91° |
| 2026-05-05 01:38 | 33.64844 | -84.40638 | 1013 ft | 15 kts | 92° |
| 2026-05-05 01:38 | 33.64791 | -84.40570 | 1013 ft | 6 kts | 173° |
| 2026-05-05 01:38 | 33.64786 | -84.40570 | 1013 ft | 0 kts | 177° |
| 2026-05-05 01:39 | 33.64785 | -84.40570 | 1013 ft | 0 kts | 177° |
| 2026-05-05 01:39 | 33.64759 | -84.40569 | 1012 ft | 9 kts | 179° |
| 2026-05-05 01:39 | 33.64684 | -84.40589 | 1010 ft | 12 kts | 235° |
| 2026-05-05 01:40 | 33.64681 | -84.40689 | 1010 ft | 12 kts | 273° |
| 2026-05-05 01:40 | 33.64681 | -84.40807 | 1013 ft | 27 kts | 270° |
| 2026-05-05 01:40 | 33.64680 | -84.41349 | 1020 ft | 102 kts | 271° |
| 2026-05-05 01:40 | 33.64678 | -84.42469 | 1015 ft | 164 kts | 268° |
| 2026-05-05 01:41 | 33.64684 | -84.43926 | 1627 ft | 175 kts | 269° |
| 2026-05-05 01:41 | 33.64711 | -84.45327 | 2659 ft | 166 kts | 266° |
| 2026-05-05 01:41 | 33.64800 | -84.46764 | 3270 ft | 187 kts | 278° |
| 2026-05-05 01:41 | 33.65126 | -84.48393 | 3682 ft | 209 kts | 279° |
| 2026-05-05 01:42 | 33.65447 | -84.50160 | 4126 ft | 224 kts | 279° |
| 2026-05-05 01:42 | 33.65790 | -84.52047 | 4526 ft | 241 kts | 278° |
| 2026-05-05 01:42 | 33.66144 | -84.54083 | 5025 ft | 258 kts | 279° |
| 2026-05-05 01:42 | 33.66505 | -84.56290 | 5469 ft | 279 kts | 278° |
| 2026-05-05 01:43 | 33.66890 | -84.58617 | 6233 ft | 286 kts | 279° |
| 2026-05-05 01:43 | 33.67246 | -84.60956 | 7257 ft | 281 kts | 276° |
| 2026-05-05 01:43 | 33.67499 | -84.63215 | 8367 ft | 274 kts | 275° |
| 2026-05-05 01:43 | 33.67723 | -84.65493 | 9273 ft | 276 kts | 275° |
| 2026-05-05 01:44 | 33.67942 | -84.67805 | 10099 ft | 280 kts | 275° |
| 2026-05-05 01:44 | 33.68167 | -84.70178 | 10550 ft | 298 kts | 275° |
| 2026-05-05 01:44 | 33.68413 | -84.72763 | 10734 ft | 323 kts | 275° |
| 2026-05-05 01:44 | 33.68681 | -84.75541 | 10910 ft | 347 kts | 275° |
| 2026-05-05 01:45 | 33.68968 | -84.78480 | 11076 ft | 368 kts | 276° |
| 2026-05-05 01:45 | 33.69271 | -84.81575 | 11466 ft | 379 kts | 276° |
| 2026-05-05 01:45 | 33.69584 | -84.84747 | 12099 ft | 383 kts | 276° |
| 2026-05-05 01:45 | 33.69900 | -84.87932 | 12800 ft | 385 kts | 276° |
| 2026-05-05 01:46 | 33.70217 | -84.91142 | 13462 ft | 388 kts | 276° |
| 2026-05-05 01:46 | 33.70536 | -84.94374 | 14099 ft | 392 kts | 276° |